createdAt,value
2022-10-22T00:02:26.198Z,7.76
2022-10-22T00:04:57.198Z,7.85
2022-10-22T00:07:25.724Z,7.80
2022-10-22T00:09:53.719Z,7.57
2022-10-22T00:12:21.974Z,7.54
2022-10-22T00:14:51.196Z,7.42
2022-10-22T00:17:19.436Z,7.82
2022-10-22T00:19:47.214Z,7.46
2022-10-22T00:22:16.372Z,7.55
2022-10-22T00:24:44.194Z,7.78
2022-10-22T00:27:13.807Z,7.78
2022-10-22T00:29:42.767Z,7.77
2022-10-22T00:32:10.688Z,7.57
2022-10-22T00:34:38.559Z,7.62
2022-10-22T00:37:06.985Z,7.70
2022-10-22T00:39:35.279Z,7.67
2022-10-22T00:42:03.175Z,7.34
2022-10-22T00:45:23.653Z,7.61
2022-10-22T00:48:20.064Z,7.62
2022-10-22T00:51:01.427Z,7.59
2022-10-22T00:53:39.666Z,7.35
2022-10-22T00:56:09.325Z,7.60
2022-10-22T00:58:43.979Z,7.35
2022-10-22T01:01:20.302Z,7.36
2022-10-22T01:03:49.051Z,7.67
2022-10-22T01:06:29.207Z,7.67
2022-10-22T01:09:34.835Z,7.76
2022-10-22T01:12:36.629Z,7.77
2022-10-22T01:15:29.154Z,7.77
2022-10-22T01:18:15.725Z,7.78
2022-10-22T01:21:10.283Z,7.34
2022-10-22T01:24:15.686Z,7.88
2022-10-22T01:27:11.007Z,7.89
2022-10-22T01:30:03.384Z,7.84
2022-10-22T01:32:59.273Z,7.64
2022-10-22T01:35:39.189Z,7.76
2022-10-22T01:38:12.686Z,7.49
2022-10-22T01:40:41.883Z,7.54
2022-10-22T01:43:11.620Z,7.86
2022-10-22T01:45:56.539Z,7.87
2022-10-22T01:48:33.700Z,7.84
2022-10-22T01:51:35.122Z,7.86
2022-10-22T01:54:44.483Z,7.93
2022-10-22T01:57:51.439Z,7.91
2022-10-22T02:00:20.165Z,7.91
2022-10-22T02:03:07.509Z,7.93
2022-10-22T02:05:56.193Z,7.74
2022-10-22T02:08:33.166Z,7.93
2022-10-22T02:11:02.872Z,7.97
2022-10-22T02:13:39.743Z,7.89
2022-10-22T02:16:12.723Z,7.95
2022-10-22T02:18:45.158Z,8.03
2022-10-22T02:21:13.737Z,8.05
2022-10-22T02:23:41.767Z,7.77
2022-10-22T02:26:22.011Z,8.08
2022-10-22T02:29:05.545Z,8.10
2022-10-22T02:31:38.714Z,8.09
2022-10-22T02:34:14.791Z,7.88
2022-10-22T02:36:46.849Z,8.09
2022-10-22T02:39:20.193Z,8.19
2022-10-22T02:41:48.912Z,8.22
2022-10-22T02:44:21.042Z,8.24
2022-10-22T02:46:49.573Z,8.24
2022-10-22T02:49:18.058Z,8.23
2022-10-22T02:51:46.537Z,8.27
2022-10-22T02:54:16.410Z,8.27
2022-10-22T02:56:44.402Z,8.05
2022-10-22T02:59:12.230Z,8.27
2022-10-22T03:01:40.289Z,8.27
2022-10-22T03:04:08.137Z,8.23
2022-10-22T03:06:36.508Z,8.24
2022-10-22T03:09:04.925Z,8.19
2022-10-22T03:11:32.786Z,8.21
2022-10-22T03:14:00.692Z,7.96
2022-10-22T03:16:28.888Z,7.96
2022-10-22T03:18:56.753Z,8.30
2022-10-22T03:21:42.753Z,8.34
2022-10-22T03:24:22.497Z,8.14
2022-10-22T03:26:53.307Z,8.37
2022-10-22T03:29:26.085Z,8.08
2022-10-22T03:31:55.119Z,8.11
2022-10-22T03:34:23.072Z,8.45
2022-10-22T03:36:53.235Z,8.43
2022-10-22T03:39:24.047Z,8.34
2022-10-22T03:41:53.514Z,8.42
2022-10-22T03:44:22.911Z,8.31
2022-10-22T03:46:51.326Z,8.29
2022-10-22T03:49:19.219Z,8.16
2022-10-22T03:51:47.316Z,8.38
2022-10-22T03:54:17.389Z,8.10
2022-10-22T03:56:45.208Z,8.36
2022-10-22T03:59:13.785Z,7.85
2022-10-22T04:01:41.811Z,8.33
2022-10-22T04:04:09.709Z,8.29
2022-10-22T04:06:37.814Z,8.29
2022-10-22T04:09:06.326Z,8.23
2022-10-22T04:11:34.156Z,8.17
2022-10-22T04:14:02.033Z,8.08
2022-10-22T04:16:31.821Z,7.91
2022-10-22T04:18:59.910Z,7.91
2022-10-22T04:21:27.871Z,7.57
2022-10-22T04:23:55.823Z,7.78
2022-10-22T04:26:24.046Z,7.49
2022-10-22T04:28:53.352Z,7.74
2022-10-22T04:31:24.549Z,7.53
2022-10-22T04:33:59.275Z,7.52
2022-10-22T04:36:29.116Z,7.56
2022-10-22T04:39:01.261Z,7.60
2022-10-22T04:41:36.832Z,7.57
2022-10-22T04:44:06.142Z,7.57
2022-10-22T04:46:35.735Z,7.49
2022-10-22T04:49:04.865Z,7.51
2022-10-22T04:51:33.250Z,7.56
2022-10-22T04:54:01.205Z,7.61
2022-10-22T04:56:31.966Z,7.51
2022-10-22T04:59:07.468Z,7.36
2022-10-22T05:01:42.635Z,7.14
2022-10-22T05:04:19.819Z,7.16
2022-10-22T05:06:49.159Z,7.13
2022-10-22T05:09:21.041Z,7.27
2022-10-22T05:11:51.876Z,7.04
2022-10-22T05:14:24.316Z,6.65
2022-10-22T05:16:53.658Z,7.24
2022-10-22T05:19:26.958Z,7.32
2022-10-22T05:21:58.085Z,7.14
2022-10-22T05:24:27.910Z,7.19
2022-10-22T05:26:59.330Z,7.50
2022-10-22T05:29:28.118Z,7.59
2022-10-22T05:31:56.168Z,7.60
2022-10-22T05:34:24.222Z,7.50
2022-10-22T05:36:52.102Z,7.69
2022-10-22T05:39:19.961Z,7.73
2022-10-22T05:41:50.719Z,7.81
2022-10-22T05:44:18.775Z,7.89
2022-10-22T05:46:46.566Z,7.99
2022-10-22T05:49:17.964Z,8.06
2022-10-22T05:51:47.035Z,8.13
2022-10-22T05:54:20.934Z,8.18
2022-10-22T05:56:49.348Z,8.21
2022-10-22T05:59:17.373Z,8.20
2022-10-22T06:01:45.454Z,8.36
2022-10-22T06:04:15.024Z,8.46
2022-10-22T06:06:51.669Z,8.54
2022-10-22T06:09:24.854Z,8.66
2022-10-22T06:11:53.910Z,8.56
2022-10-22T06:14:22.780Z,8.87
2022-10-22T06:16:51.892Z,9.14
2022-10-22T06:19:23.824Z,9.28
2022-10-22T06:21:51.912Z,9.18
2022-10-22T06:24:19.722Z,9.16
2022-10-22T06:26:54.771Z,9.20
2022-10-22T06:29:23.863Z,9.26
2022-10-22T06:31:52.177Z,10.01
2022-10-22T06:34:20.617Z,10.08
2022-10-22T06:36:51.722Z,10.59
2022-10-22T06:39:19.865Z,10.99
2022-10-22T06:41:47.959Z,10.88
2022-10-22T06:44:20.144Z,11.26
2022-10-22T06:46:52.676Z,10.87
2022-10-22T06:49:21.826Z,11.16
2022-10-22T06:51:54.003Z,11.15
2022-10-22T06:54:22.435Z,11.51
2022-10-22T06:56:50.553Z,11.58
2022-10-22T06:59:18.883Z,11.79
2022-10-22T07:01:47.026Z,11.40
2022-10-22T07:04:15.841Z,12.12
2022-10-22T07:06:43.944Z,12.32
2022-10-22T07:09:12.405Z,12.51
2022-10-22T07:11:44.943Z,12.41
2022-10-22T07:14:14.990Z,12.28
2022-10-22T07:16:43.371Z,12.05
2022-10-22T07:19:11.878Z,11.81
2022-10-22T07:21:40.165Z,11.88
2022-10-22T07:24:08.806Z,11.85
2022-10-22T07:26:37.452Z,11.76
2022-10-22T07:29:05.854Z,11.76
2022-10-22T07:31:34.374Z,11.75
2022-10-22T07:34:02.808Z,11.53
2022-10-22T07:36:30.642Z,11.92
2022-10-22T07:39:01.722Z,11.55
2022-10-22T07:41:31.196Z,11.67
2022-10-22T07:43:59.819Z,11.78
2022-10-22T07:46:28.539Z,11.92
2022-10-22T07:48:56.639Z,12.25
2022-10-22T07:51:24.737Z,12.33
2022-10-22T07:53:52.687Z,12.29
2022-10-22T07:56:21.058Z,12.27
2022-10-22T07:58:49.129Z,12.30
2022-10-22T08:01:17.310Z,12.24
2022-10-22T08:03:45.469Z,12.28
2022-10-22T08:06:15.115Z,12.31
2022-10-22T08:08:43.832Z,11.99
2022-10-22T08:11:12.834Z,12.24
2022-10-22T08:13:45.053Z,12.21
2022-10-22T08:16:14.715Z,12.32
2022-10-22T08:18:42.846Z,12.33
2022-10-22T08:21:12.768Z,12.73
2022-10-22T08:23:41.401Z,12.90
2022-10-22T08:26:10.562Z,12.61
2022-10-22T08:28:38.663Z,12.77
2022-10-22T08:31:08.694Z,12.65
2022-10-22T08:33:38.981Z,12.62
2022-10-22T08:36:08.058Z,12.62
2022-10-22T08:38:36.316Z,12.61
2022-10-22T08:41:20.618Z,12.80
2022-10-22T08:44:23.789Z,12.87
2022-10-22T08:47:21.636Z,13.14
2022-10-22T08:49:52.137Z,13.04
2022-10-22T08:52:21.093Z,13.28
2022-10-22T08:55:02.144Z,12.99
2022-10-22T08:58:03.667Z,13.18
2022-10-22T09:00:58.889Z,13.20
2022-10-22T09:03:37.251Z,13.21
2022-10-22T09:06:26.160Z,13.31
2022-10-22T09:08:57.078Z,13.06
2022-10-22T09:11:37.864Z,13.03
2022-10-22T09:14:07.102Z,13.25
2022-10-22T09:17:10.244Z,13.30
2022-10-22T09:20:03.572Z,13.24
2022-10-22T09:23:11.013Z,13.27
2022-10-22T09:25:39.460Z,13.40
2022-10-22T09:28:10.178Z,13.37
2022-10-22T09:30:40.253Z,13.42
2022-10-22T09:33:08.357Z,13.55
2022-10-22T09:35:57.009Z,13.53
2022-10-22T09:38:30.033Z,13.42
2022-10-22T09:41:00.977Z,13.68
2022-10-22T09:43:29.411Z,13.33
2022-10-22T09:46:03.944Z,13.46
2022-10-22T09:48:39.511Z,13.32
2022-10-22T09:51:25.576Z,13.31
2022-10-22T09:54:01.056Z,13.29
2022-10-22T09:56:36.603Z,13.32
2022-10-22T09:59:04.961Z,13.67
2022-10-22T10:01:36.543Z,13.77
2022-10-22T10:04:16.223Z,13.99
2022-10-22T10:06:45.248Z,13.95
2022-10-22T10:09:23.648Z,14.05
2022-10-22T10:12:21.338Z,14.14
2022-10-22T10:15:01.339Z,14.07
2022-10-22T10:18:16.157Z,14.13
2022-10-22T10:21:08.719Z,14.29
2022-10-22T10:24:09.709Z,14.25
2022-10-22T10:27:01.251Z,14.56
2022-10-22T10:30:06.700Z,14.55
2022-10-22T10:33:16.087Z,14.80
2022-10-22T10:36:06.884Z,15.06
2022-10-22T10:39:16.287Z,14.99
2022-10-22T10:42:02.650Z,14.83
2022-10-22T10:45:01.316Z,14.84
2022-10-22T10:48:10.682Z,14.84
2022-10-22T10:50:56.332Z,15.02
2022-10-22T10:53:42.793Z,15.28
2022-10-22T10:56:41.642Z,15.46
2022-10-22T10:59:50.468Z,15.55
2022-10-22T11:02:40.459Z,15.35
2022-10-22T11:05:31.938Z,15.11
2022-10-22T11:08:28.176Z,15.40
2022-10-22T11:11:23.237Z,15.36
2022-10-22T11:14:17.284Z,15.47
2022-10-22T11:17:17.166Z,15.24
2022-10-22T11:20:30.477Z,15.08
2022-10-22T11:23:20.118Z,15.28
2022-10-22T11:25:51.141Z,15.25
2022-10-22T11:28:45.660Z,15.11
2022-10-22T11:31:18.455Z,15.25
2022-10-22T11:34:09.788Z,15.18
2022-10-22T11:36:45.288Z,15.36
2022-10-22T11:39:34.259Z,15.25
2022-10-22T11:42:23.527Z,14.86
2022-10-22T11:45:28.835Z,15.24
2022-10-22T11:48:11.959Z,15.36
2022-10-22T11:51:01.248Z,15.42
2022-10-22T11:53:34.442Z,15.19
2022-10-22T11:56:10.014Z,15.11
2022-10-22T11:58:39.641Z,14.22
2022-10-22T12:01:10.624Z,14.94
2022-10-22T12:03:44.451Z,14.94
2022-10-22T12:06:16.015Z,14.95
2022-10-22T12:08:50.344Z,14.92
2022-10-22T12:11:50.457Z,14.89
2022-10-22T12:14:48.406Z,14.90
2022-10-22T12:17:18.173Z,14.79
2022-10-22T12:20:11.774Z,14.51
2022-10-22T12:22:40.501Z,14.49
2022-10-22T12:25:24.808Z,14.64
2022-10-22T12:27:58.229Z,14.32
2022-10-22T12:30:31.946Z,14.51
2022-10-22T12:33:03.863Z,14.51
2022-10-22T12:35:43.848Z,14.50
2022-10-22T12:38:22.743Z,14.39
2022-10-22T12:40:54.848Z,14.40
2022-10-22T12:43:31.382Z,14.37
2022-10-22T12:46:00.185Z,14.24
2022-10-22T12:48:34.745Z,14.23
2022-10-22T12:51:08.357Z,13.98
2022-10-22T12:53:52.390Z,14.17
2022-10-22T12:56:26.900Z,14.16
2022-10-22T12:59:03.760Z,14.11
2022-10-22T13:01:42.396Z,14.11
2022-10-22T13:04:15.333Z,14.07
2022-10-22T13:07:07.494Z,13.85
2022-10-22T13:09:59.708Z,13.81
2022-10-22T13:12:35.525Z,13.71
2022-10-22T13:15:28.118Z,13.84
2022-10-22T13:18:24.143Z,13.81
2022-10-22T13:21:07.816Z,13.79
2022-10-22T13:23:35.911Z,13.71
2022-10-22T13:26:15.237Z,13.70
2022-10-22T13:28:50.856Z,13.58
2022-10-22T13:31:26.712Z,13.51
2022-10-22T13:34:01.408Z,13.37
2022-10-22T13:36:32.461Z,13.10
2022-10-22T13:39:00.620Z,13.27
2022-10-22T13:41:32.504Z,13.13
2022-10-22T13:44:00.819Z,13.01
2022-10-22T13:46:29.577Z,12.67
2022-10-22T13:49:00.155Z,12.57
2022-10-22T13:51:37.693Z,12.54
2022-10-22T13:54:30.468Z,12.59
2022-10-22T13:56:58.625Z,12.55
2022-10-22T13:59:26.472Z,12.53
2022-10-22T14:01:56.147Z,12.54
2022-10-22T14:04:24.323Z,12.30
2022-10-22T14:06:52.779Z,12.41
2022-10-22T14:09:21.437Z,12.38
2022-10-22T14:11:49.624Z,12.40
2022-10-22T14:14:21.045Z,12.31
2022-10-22T14:16:49.641Z,12.28
2022-10-22T14:19:18.515Z,12.24
2022-10-22T14:21:47.313Z,12.20
2022-10-22T14:24:15.938Z,12.14
2022-10-22T14:26:44.380Z,12.06
2022-10-22T14:29:12.287Z,11.97
2022-10-22T14:31:43.084Z,11.81
2022-10-22T14:34:15.829Z,11.86
2022-10-22T14:36:44.389Z,11.82
2022-10-22T14:39:13.934Z,11.73
2022-10-22T14:41:42.707Z,11.64
2022-10-22T14:44:17.304Z,11.45
2022-10-22T14:46:46.962Z,11.68
2022-10-22T14:49:18.097Z,11.61
2022-10-22T14:51:47.641Z,11.55
2022-10-22T14:54:16.607Z,10.88
2022-10-22T14:56:44.987Z,11.55
2022-10-22T14:59:15.898Z,11.48
2022-10-22T15:01:45.041Z,11.45
2022-10-22T15:04:15.743Z,11.46
2022-10-22T15:06:43.710Z,11.44
2022-10-22T15:09:11.751Z,11.09
2022-10-22T15:11:40.063Z,11.35
2022-10-22T15:14:08.392Z,11.38
2022-10-22T15:16:36.368Z,11.33
2022-10-22T15:19:04.541Z,11.32
2022-10-22T15:21:33.711Z,11.20
2022-10-22T15:24:01.776Z,11.21
2022-10-22T15:26:29.914Z,11.22
2022-10-22T15:28:57.892Z,11.24
2022-10-22T15:31:46.315Z,10.96
2022-10-22T15:34:20.280Z,10.94
2022-10-22T15:36:48.553Z,11.14
2022-10-22T15:39:16.905Z,11.17
2022-10-22T15:41:49.448Z,11.14
2022-10-22T15:44:22.216Z,11.16
2022-10-22T15:46:51.614Z,11.11
2022-10-22T15:49:19.981Z,10.62
2022-10-22T15:51:48.592Z,11.09
2022-10-22T15:54:24.304Z,11.14
2022-10-22T15:56:52.889Z,11.14
2022-10-22T15:59:21.556Z,11.14
2022-10-22T16:01:49.961Z,11.07
2022-10-22T16:04:18.684Z,11.08
2022-10-22T16:06:53.073Z,11.07
2022-10-22T16:09:24.669Z,10.79
2022-10-22T16:11:54.491Z,11.06
2022-10-22T16:14:24.420Z,11.00
2022-10-22T16:16:56.067Z,10.98
2022-10-22T16:19:25.449Z,10.87
2022-10-22T16:21:56.846Z,10.98
2022-10-22T16:24:25.071Z,10.88
2022-10-22T16:26:53.526Z,10.92
2022-10-22T16:29:21.739Z,10.94
2022-10-22T16:31:49.779Z,10.93
2022-10-22T16:34:18.453Z,10.94
2022-10-22T16:36:46.951Z,10.89
2022-10-22T16:39:15.452Z,10.88
2022-10-22T16:41:43.701Z,10.89
2022-10-22T16:44:13.966Z,10.15
2022-10-22T16:46:42.506Z,10.88
2022-10-22T16:49:10.776Z,10.90
2022-10-22T16:51:39.740Z,10.91
2022-10-22T16:54:11.302Z,10.67
2022-10-22T16:56:41.833Z,10.94
2022-10-22T16:59:09.964Z,10.95
2022-10-22T17:01:40.968Z,10.92
2022-10-22T17:04:10.987Z,10.92
2022-10-22T17:06:39.586Z,10.67
2022-10-22T17:09:07.832Z,10.75
2022-10-22T17:11:38.068Z,10.78
2022-10-22T17:14:08.210Z,11.06
2022-10-22T17:16:37.062Z,10.55
2022-10-22T17:19:06.789Z,11.08
2022-10-22T17:21:34.824Z,11.08
2022-10-22T17:24:02.877Z,11.06
2022-10-22T17:26:34.012Z,11.06
2022-10-22T17:29:01.944Z,11.07
2022-10-22T17:31:40.361Z,10.96
2022-10-22T17:34:15.266Z,11.11
2022-10-22T17:36:45.062Z,11.12
2022-10-22T17:39:18.432Z,11.03
2022-10-22T17:41:46.947Z,11.14
2022-10-22T17:44:16.258Z,11.10
2022-10-22T17:46:45.372Z,10.92
2022-10-22T17:49:19.288Z,11.07
2022-10-22T17:51:47.578Z,11.18
2022-10-22T17:54:15.903Z,11.20
2022-10-22T17:56:44.125Z,10.93
2022-10-22T17:59:16.256Z,10.85
2022-10-22T18:01:47.299Z,11.13
2022-10-22T18:04:19.190Z,11.03
2022-10-22T18:06:48.550Z,11.26
2022-10-22T18:09:19.433Z,11.26
2022-10-22T18:11:51.083Z,11.26
2022-10-22T18:14:21.921Z,11.25
2022-10-22T18:16:51.098Z,11.22
2022-10-22T18:19:24.691Z,11.27
2022-10-22T18:21:53.171Z,11.25
2022-10-22T18:24:21.300Z,11.05
2022-10-22T18:26:49.661Z,11.25
2022-10-22T18:29:21.071Z,11.23
2022-10-22T18:31:49.640Z,11.18
2022-10-22T18:34:20.379Z,11.22
2022-10-22T18:36:51.215Z,11.23
2022-10-22T18:39:19.916Z,11.00
2022-10-22T18:41:47.856Z,11.21
2022-10-22T18:44:16.587Z,10.91
2022-10-22T18:46:44.669Z,11.21
2022-10-22T18:49:18.727Z,10.94
2022-10-22T18:51:53.154Z,11.11
2022-10-22T18:54:24.650Z,10.96
2022-10-22T18:57:02.591Z,10.84
2022-10-22T18:59:31.742Z,11.04
2022-10-22T19:02:00.288Z,10.84
2022-10-22T19:04:36.850Z,10.95
2022-10-22T19:07:07.224Z,11.01
2022-10-22T19:09:35.617Z,10.85
2022-10-22T19:12:03.765Z,11.06
2022-10-22T19:14:32.627Z,11.07
2022-10-22T19:17:00.595Z,10.83
2022-10-22T19:19:28.695Z,10.76
2022-10-22T19:21:57.254Z,11.09
2022-10-22T19:24:25.923Z,10.27
2022-10-22T19:26:57.521Z,11.04
2022-10-22T19:29:25.653Z,10.79
2022-10-22T19:31:54.220Z,11.04
2022-10-22T19:34:22.502Z,10.85
2022-10-22T19:36:52.102Z,11.01
2022-10-22T19:39:21.238Z,11.05
2022-10-22T19:41:49.439Z,11.07
2022-10-22T19:44:20.237Z,10.84
2022-10-22T19:46:48.295Z,11.08
2022-10-22T19:49:22.089Z,11.10
2022-10-22T19:51:51.190Z,11.07
2022-10-22T19:54:19.891Z,10.81
2022-10-22T19:56:48.895Z,10.93
2022-10-22T19:59:20.881Z,10.79
2022-10-22T20:01:49.111Z,10.97
2022-10-22T20:04:18.733Z,10.97
2022-10-22T20:06:47.494Z,11.06
2022-10-22T20:09:15.791Z,11.24
2022-10-22T20:11:44.467Z,11.35
2022-10-22T20:14:14.996Z,11.38
2022-10-22T20:16:44.067Z,11.12
2022-10-22T20:19:16.421Z,11.11
2022-10-22T20:21:49.239Z,11.11
2022-10-22T20:24:17.420Z,10.95
2022-10-22T20:26:48.494Z,11.15
2022-10-22T20:29:19.339Z,11.12
2022-10-22T20:31:48.526Z,11.13
2022-10-22T20:34:17.545Z,10.95
2022-10-22T20:36:46.040Z,11.16
2022-10-22T20:39:16.816Z,11.15
2022-10-22T20:41:45.380Z,11.15
2022-10-22T20:44:17.373Z,11.11
2022-10-22T20:46:45.695Z,11.18
2022-10-22T20:49:18.220Z,11.12
2022-10-22T20:51:46.427Z,11.11
2022-10-22T20:54:23.450Z,11.08
2022-10-22T20:56:51.638Z,11.12
2022-10-22T21:00:03.414Z,11.15
2022-10-22T21:02:31.889Z,11.19
2022-10-22T21:05:01.694Z,11.19
2022-10-22T21:07:29.746Z,11.08
2022-10-22T21:09:57.873Z,11.22
2022-10-22T21:12:41.933Z,11.06
2022-10-22T21:15:12.641Z,11.23
2022-10-22T21:17:41.408Z,11.32
2022-10-22T21:22:38.762Z,11.36
2022-10-22T21:25:07.693Z,11.04
2022-10-22T21:27:35.759Z,11.20
2022-10-22T21:30:06.948Z,11.35
2022-10-22T21:32:36.307Z,11.34
2022-10-22T21:35:07.336Z,11.10
2022-10-22T21:37:36.562Z,11.35
2022-10-22T21:40:08.945Z,11.34
2022-10-22T21:42:37.116Z,11.29
2022-10-22T21:45:10.469Z,11.31
2022-10-22T21:47:41.970Z,11.42
2022-10-22T21:50:10.396Z,11.35
2022-10-22T21:52:38.626Z,11.07
2022-10-22T21:55:07.194Z,11.35
2022-10-22T21:57:35.804Z,11.15
2022-10-22T22:00:07.607Z,11.15
2022-10-22T22:02:35.402Z,11.18
2022-10-22T22:05:03.352Z,11.44
2022-10-22T22:07:31.491Z,11.38
2022-10-22T22:09:59.493Z,11.46
2022-10-22T22:12:27.446Z,11.45
2022-10-22T22:14:55.469Z,11.53
2022-10-22T22:17:23.365Z,11.47
2022-10-22T22:19:51.360Z,11.57
2022-10-22T22:22:19.492Z,11.54
2022-10-22T22:24:47.558Z,11.51
2022-10-22T22:27:17.529Z,11.49
2022-10-22T22:29:46.418Z,11.57
2022-10-22T22:32:15.893Z,11.59
2022-10-22T22:34:43.834Z,11.58
2022-10-22T22:37:12.492Z,11.54
2022-10-22T22:39:40.400Z,11.55
2022-10-22T22:42:08.744Z,11.56
2022-10-22T22:44:38.971Z,11.56
2022-10-22T22:47:07.083Z,11.55
2022-10-22T22:49:36.506Z,11.33
2022-10-22T22:52:05.283Z,11.60
2022-10-22T22:54:33.148Z,11.61
2022-10-22T22:57:01.056Z,11.60
2022-10-22T22:59:29.204Z,11.57
2022-10-22T23:01:57.259Z,11.49
2022-10-22T23:04:25.484Z,11.63
2022-10-22T23:06:53.685Z,11.67
2022-10-22T23:09:21.697Z,11.65
2022-10-22T23:11:50.757Z,11.70
2022-10-22T23:14:20.347Z,11.75
2022-10-22T23:16:51.584Z,11.36
2022-10-22T23:19:22.771Z,11.71
2022-10-22T23:21:55.982Z,11.71
2022-10-22T23:24:28.644Z,11.64
2022-10-22T23:26:59.759Z,11.62
2022-10-22T23:29:33.873Z,11.71
2022-10-22T23:32:05.336Z,11.76
2022-10-22T23:34:33.364Z,11.71
2022-10-22T23:37:01.472Z,11.70
2022-10-22T23:39:30.161Z,11.70
2022-10-22T23:41:58.677Z,11.42
2022-10-22T23:44:26.806Z,11.53
2022-10-22T23:46:55.502Z,11.77
2022-10-22T23:49:23.433Z,11.73
2022-10-22T23:51:51.345Z,11.69
2022-10-22T23:54:19.551Z,11.73
2022-10-22T23:56:47.538Z,11.68
2022-10-22T23:59:16.298Z,11.63
